KMCC/MCC METAR and TAF weather

Enter ICAO airport designator
Station Type Date Time Source
KMCC METAR 2019/10/22 16:05 UTC NOAA

KMCC 221605Z AUTO 00000KT 10SM CLR 16/07 A3023 RMK AO2


Station Type Date Time Source
KMCC Decoded METAR 2019/10/22 16:05 UTC NOAA

Sacramento, McClellan Airfield Airport, CA, United States (KMCC) 38-40N 121-24W
Oct 22, 2019 - 12:05 PM EDT / 2019.10.22 1605 UTC
Wind: Calm:0
Visibility: 10 mile(s):0
Sky conditions: clear
Temperature: 60 F (16 C)
Dew Point: 44 F (7 C)
Relative Humidity: 55%
Pressure (altimeter): 30.23 in. Hg (1023 hPa)
ob: KMCC 221605Z AUTO 00000KT 10SM CLR 16/07 A3023 RMK AO2
cycle: 16

Station Type Date Time Source
KMCC TAF 2019/10/22 12:42 UTC NOAA

TAF KMCC 221135Z 2212/2312 VRB04KT P6SM SKC
FM221800 33005KT P6SM SKC
FM230300 VRB04KT P6SM SKC

Example: see airport list